createdAt,value
2022-12-11T00:00:29.719Z,31.23
2022-12-11T00:02:57.739Z,29.98
2022-12-11T00:05:25.623Z,32.83
2022-12-11T00:07:53.475Z,33.08
2022-12-11T00:10:21.304Z,34.83
2022-12-11T00:12:49.068Z,30.10
2022-12-11T00:15:18.393Z,32.30
2022-12-11T00:17:46.142Z,31.70
2022-12-11T00:20:13.839Z,39.40
2022-12-11T00:22:41.559Z,33.40
2022-12-11T00:25:10.125Z,37.90
2022-12-11T00:27:38.053Z,38.65
2022-12-11T00:30:07.317Z,38.88
2022-12-11T00:32:37.826Z,35.58
2022-12-11T00:35:06.243Z,30.20
2022-12-11T00:37:34.103Z,31.13
2022-12-11T00:40:01.907Z,30.42
2022-12-11T00:42:29.716Z,26.70
2022-12-11T00:44:57.866Z,36.13
2022-12-11T00:47:25.611Z,29.35
2022-12-11T00:49:54.704Z,28.17
2022-12-11T00:52:22.421Z,28.23
2022-12-11T00:54:50.078Z,32.00
2022-12-11T00:57:17.818Z,27.80
2022-12-11T00:59:46.204Z,23.83
2022-12-11T01:02:15.077Z,33.72
2022-12-11T01:04:42.857Z,40.10
2022-12-11T01:07:11.853Z,36.90
2022-12-11T01:09:56.999Z,32.95
2022-12-11T01:12:24.780Z,34.88
2022-12-11T01:14:52.563Z,32.67
2022-12-11T01:17:20.267Z,31.65
2022-12-11T01:19:48.075Z,31.23
2022-12-11T01:22:17.234Z,26.90
2022-12-11T01:24:45.102Z,28.98
2022-12-11T01:27:12.993Z,28.05
2022-12-11T01:29:40.699Z,29.83
2022-12-11T01:32:08.481Z,29.85
2022-12-11T01:34:36.248Z,31.75
2022-12-11T01:37:04.067Z,31.85
2022-12-11T01:39:33.197Z,25.38
2022-12-11T01:42:02.229Z,28.85
2022-12-11T01:45:26.745Z,29.00
2022-12-11T01:48:00.322Z,24.52
2022-12-11T01:50:29.636Z,25.90
2022-12-11T01:52:57.468Z,24.60
2022-12-11T01:55:26.732Z,27.40
2022-12-11T01:57:55.194Z,25.45
2022-12-11T02:00:23.208Z,26.73
2022-12-11T02:02:51.082Z,24.42
2022-12-11T02:05:19.200Z,30.25
2022-12-11T02:07:50.873Z,28.42
2022-12-11T02:10:18.974Z,28.33
2022-12-11T02:12:58.126Z,32.45
2022-12-11T02:15:32.877Z,22.38
2022-12-11T02:18:10.987Z,29.27
2022-12-11T02:20:43.009Z,26.20
2022-12-11T02:23:42.393Z,32.90
2022-12-11T02:26:26.090Z,27.50
2022-12-11T02:28:59.243Z,26.30
2022-12-11T02:31:31.364Z,26.23
2022-12-11T02:34:04.453Z,25.90
2022-12-11T02:36:36.698Z,26.33
2022-12-11T02:39:07.019Z,30.20
2022-12-11T02:41:35.395Z,25.67
2022-12-11T02:44:05.712Z,27.75
2022-12-11T02:46:36.857Z,26.00
2022-12-11T02:49:08.078Z,26.85
2022-12-11T02:51:40.534Z,27.25
2022-12-11T02:54:13.349Z,26.30
2022-12-11T02:56:46.709Z,30.83
2022-12-11T02:59:20.198Z,25.80
2022-12-11T03:01:48.183Z,27.77
2022-12-11T03:04:15.973Z,29.17
2022-12-11T03:06:49.322Z,27.05
2022-12-11T03:09:17.022Z,28.40
2022-12-11T03:11:44.819Z,27.67
2022-12-11T03:14:13.763Z,26.08
2022-12-11T03:16:46.377Z,29.77
2022-12-11T03:19:20.708Z,27.65
2022-12-11T03:21:55.113Z,28.98
2022-12-11T03:24:29.612Z,29.92
2022-12-11T03:27:04.503Z,27.50
2022-12-11T03:29:40.143Z,25.50
2022-12-11T03:32:13.314Z,31.30
2022-12-11T03:34:46.373Z,27.13
2022-12-11T03:37:16.593Z,26.48
2022-12-11T03:39:49.836Z,27.33
2022-12-11T03:42:20.095Z,25.67
2022-12-11T03:44:50.973Z,25.27
2022-12-11T03:47:23.911Z,26.52
2022-12-11T03:52:20.943Z,30.10
2022-12-11T03:54:51.872Z,26.65
2022-12-11T03:57:23.645Z,28.33
2022-12-11T03:59:51.812Z,26.42
2022-12-11T04:02:20.926Z,23.75
2022-12-11T04:04:48.663Z,27.83
2022-12-11T04:07:16.363Z,27.92
2022-12-11T04:09:44.069Z,27.27
2022-12-11T04:12:11.721Z,28.75
2022-12-11T04:14:57.090Z,29.02
2022-12-11T04:17:43.808Z,30.42
2022-12-11T04:20:30.519Z,31.25
2022-12-11T04:23:15.699Z,27.60
2022-12-11T04:25:43.422Z,28.75
2022-12-11T04:28:11.121Z,32.35
2022-12-11T04:30:38.875Z,29.10
2022-12-11T04:33:07.950Z,31.67
2022-12-11T04:35:35.684Z,28.10
2022-12-11T04:38:03.431Z,29.13
2022-12-11T04:40:31.152Z,31.23
2022-12-11T04:42:59.101Z,26.55
2022-12-11T04:45:26.778Z,28.33
2022-12-11T04:47:54.524Z,29.95
2022-12-11T04:50:23.631Z,29.02
2022-12-11T04:52:51.412Z,32.50
2022-12-11T04:55:19.392Z,30.15
2022-12-11T04:57:47.126Z,34.15
2022-12-11T05:00:16.016Z,35.10
2022-12-11T05:02:44.104Z,33.85
2022-12-11T05:05:12.999Z,31.00
2022-12-11T05:07:42.422Z,28.75
2022-12-11T05:10:11.188Z,30.33
2022-12-11T05:12:38.917Z,31.85
2022-12-11T05:15:07.758Z,28.95
2022-12-11T05:17:35.741Z,32.95
2022-12-11T05:20:03.473Z,32.85
2022-12-11T05:22:32.231Z,31.15
2022-12-11T05:25:01.487Z,32.90
2022-12-11T05:27:29.246Z,30.88
2022-12-11T05:29:59.515Z,32.35
2022-12-11T05:32:27.735Z,32.90
2022-12-11T05:34:55.411Z,29.05
2022-12-11T05:37:23.427Z,30.95
2022-12-11T05:39:51.199Z,35.65
2022-12-11T05:42:24.121Z,35.80
2022-12-11T05:44:56.280Z,34.00
2022-12-11T05:47:24.053Z,35.35
2022-12-11T05:49:51.959Z,30.00
2022-12-11T05:52:19.689Z,29.67
2022-12-11T05:54:49.772Z,29.75
2022-12-11T05:57:17.597Z,31.25
2022-12-11T05:59:46.654Z,30.77
2022-12-11T06:02:14.494Z,35.85
2022-12-11T06:04:42.406Z,32.53
2022-12-11T06:07:10.091Z,33.85
2022-12-11T06:09:37.883Z,35.03
2022-12-11T06:12:05.918Z,36.80
2022-12-11T06:14:33.645Z,32.72
2022-12-11T06:17:02.800Z,35.30
2022-12-11T06:19:36.415Z,34.78
2022-12-11T06:22:04.667Z,31.65
2022-12-11T06:24:32.411Z,29.98
2022-12-11T06:27:00.128Z,27.95
2022-12-11T06:29:27.807Z,28.88
2022-12-11T06:31:55.552Z,32.35
2022-12-11T06:34:24.717Z,30.38
2022-12-11T06:36:52.505Z,32.67
2022-12-11T06:39:20.354Z,27.98
2022-12-11T06:41:48.306Z,30.88
2022-12-11T06:44:16.084Z,30.15
2022-12-11T06:46:43.750Z,27.88
2022-12-11T06:49:11.404Z,28.13
2022-12-11T06:51:40.865Z,26.30
2022-12-11T06:54:08.653Z,30.83
2022-12-11T06:56:36.683Z,27.42
2022-12-11T06:59:07.488Z,25.52
2022-12-11T07:01:35.482Z,27.15
2022-12-11T07:04:03.380Z,32.78
2022-12-11T07:06:31.474Z,32.13
2022-12-11T07:09:00.558Z,31.40
2022-12-11T07:11:28.271Z,31.45
2022-12-11T07:13:55.996Z,30.13
2022-12-11T07:16:23.858Z,23.90
2022-12-11T07:18:53.554Z,26.67
2022-12-11T07:21:22.563Z,26.13
2022-12-11T07:23:51.220Z,24.33
2022-12-11T07:26:22.500Z,28.77
2022-12-11T07:28:50.930Z,25.25
2022-12-11T07:31:20.757Z,24.33
2022-12-11T07:33:48.674Z,29.25
2022-12-11T07:36:16.734Z,29.27
2022-12-11T07:38:44.453Z,27.58
2022-12-11T07:41:14.483Z,35.30
2022-12-11T07:43:44.088Z,33.85
2022-12-11T07:46:13.594Z,32.83
2022-12-11T07:48:43.621Z,34.47
2022-12-11T07:51:12.489Z,32.58
2022-12-11T07:53:40.261Z,30.77
2022-12-11T07:56:08.832Z,26.77
2022-12-11T07:58:39.030Z,29.98
2022-12-11T08:01:13.261Z,31.65
2022-12-11T08:03:41.171Z,36.70
2022-12-11T08:06:10.019Z,38.22
2022-12-11T08:08:37.851Z,27.17
2022-12-11T08:11:07.470Z,30.60
2022-12-11T08:13:35.270Z,28.63
2022-12-11T08:16:04.860Z,31.48
2022-12-11T08:18:34.486Z,33.80
2022-12-11T08:21:06.716Z,36.70
2022-12-11T08:23:34.904Z,29.38
2022-12-11T08:26:04.634Z,35.75
2022-12-11T08:28:32.647Z,29.58
2022-12-11T08:31:00.840Z,38.75
2022-12-11T08:33:28.587Z,32.25
2022-12-11T08:35:57.668Z,34.70
2022-12-11T08:38:25.839Z,31.55
2022-12-11T08:40:53.621Z,34.05
2022-12-11T08:43:21.307Z,36.58
2022-12-11T08:45:49.380Z,45.30
2022-12-11T08:48:17.506Z,36.15
2022-12-11T08:50:45.276Z,36.97
2022-12-11T08:53:14.512Z,34.15
2022-12-11T08:55:42.328Z,37.13
2022-12-11T08:58:10.035Z,31.75
2022-12-11T09:00:37.836Z,31.23
2022-12-11T09:03:09.820Z,30.38
2022-12-11T09:05:40.571Z,34.38
2022-12-11T09:08:08.413Z,38.33
2022-12-11T09:10:37.715Z,43.35
2022-12-11T09:13:05.518Z,37.95
2022-12-11T09:15:33.305Z,34.10
2022-12-11T09:18:01.193Z,35.47
2022-12-11T09:20:28.953Z,33.88
2022-12-11T09:22:56.703Z,37.63
2022-12-11T09:25:24.411Z,35.67
2022-12-11T09:27:53.702Z,43.83
2022-12-11T09:30:21.676Z,37.75
2022-12-11T09:32:49.404Z,32.15
2022-12-11T09:35:17.213Z,33.47
2022-12-11T09:37:44.996Z,33.45
2022-12-11T09:40:14.309Z,36.00
2022-12-11T09:42:52.085Z,34.00
2022-12-11T09:45:22.044Z,32.83
2022-12-11T09:47:52.943Z,31.15
2022-12-11T09:50:24.667Z,36.30
2022-12-11T09:53:05.424Z,34.53
2022-12-11T09:55:40.338Z,32.05
2022-12-11T09:58:19.952Z,31.75
2022-12-11T10:00:54.465Z,45.92
2022-12-11T10:04:00.689Z,30.75
2022-12-11T10:06:34.342Z,34.88
2022-12-11T10:09:12.518Z,32.42
2022-12-11T10:12:01.196Z,35.85
2022-12-11T10:14:43.090Z,36.70
2022-12-11T10:17:17.133Z,37.05
2022-12-11T10:19:45.042Z,38.15
2022-12-11T10:22:19.966Z,36.58
2022-12-11T10:25:12.400Z,36.13
2022-12-11T10:27:41.794Z,33.35
2022-12-11T10:30:28.356Z,36.50
2022-12-11T10:33:13.941Z,32.63
2022-12-11T10:35:46.364Z,33.63
2022-12-11T10:38:18.507Z,35.30
2022-12-11T10:40:50.792Z,32.43
2022-12-11T10:43:18.645Z,34.15
2022-12-11T10:45:53.582Z,40.88
2022-12-11T10:48:23.609Z,47.20
2022-12-11T10:51:01.138Z,45.05
2022-12-11T10:53:30.155Z,44.40
2022-12-11T10:55:59.135Z,44.72
2022-12-11T10:58:33.805Z,41.47
2022-12-11T11:01:07.279Z,35.63
2022-12-11T11:03:44.772Z,29.88
2022-12-11T11:06:17.372Z,36.00
2022-12-11T11:08:46.931Z,37.10
2022-12-11T11:11:22.921Z,31.15
2022-12-11T11:13:51.065Z,37.80
2022-12-11T11:16:22.264Z,44.85
2022-12-11T11:18:56.907Z,37.25
2022-12-11T11:21:29.826Z,47.80
2022-12-11T11:26:34.305Z,37.90
2022-12-11T11:29:26.815Z,30.40
2022-12-11T11:31:54.730Z,52.28
2022-12-11T11:34:26.115Z,45.28
2022-12-11T11:36:59.741Z,41.92
2022-12-11T11:39:35.189Z,37.83
2022-12-11T11:42:09.898Z,38.40
2022-12-11T11:44:42.414Z,41.17
2022-12-11T11:47:15.867Z,36.80
2022-12-11T11:49:54.349Z,35.13
2022-12-11T11:52:30.470Z,36.63
2022-12-11T11:55:10.035Z,40.97
2022-12-11T11:57:43.586Z,42.10
2022-12-11T12:00:20.774Z,39.67
2022-12-11T12:02:50.909Z,44.25
2022-12-11T12:05:26.900Z,39.63
2022-12-11T12:08:08.605Z,40.92
2022-12-11T12:10:45.242Z,38.67
2022-12-11T12:13:48.498Z,40.85
2022-12-11T12:19:36.315Z,43.47
2022-12-11T12:22:17.244Z,37.22
2022-12-11T12:24:54.461Z,40.80
2022-12-11T12:27:51.443Z,42.28
2022-12-11T12:30:23.020Z,45.53
2022-12-11T12:33:06.273Z,49.20
2022-12-11T12:35:37.264Z,51.45
2022-12-11T12:38:15.996Z,46.13
2022-12-11T12:40:59.075Z,41.35
2022-12-11T12:43:53.795Z,38.72
2022-12-11T12:46:35.272Z,45.63
2022-12-11T12:49:04.850Z,40.00
2022-12-11T12:51:33.374Z,42.50
2022-12-11T12:54:11.956Z,41.90
2022-12-11T12:56:43.600Z,38.10
2022-12-11T12:59:21.366Z,44.47
2022-12-11T13:01:55.071Z,45.30
2022-12-11T13:04:55.482Z,40.83
2022-12-11T13:07:29.636Z,48.60
2022-12-11T13:10:02.072Z,44.30
2022-12-11T13:12:41.023Z,45.13
2022-12-11T13:15:25.069Z,38.00
2022-12-11T13:17:52.846Z,36.28
2022-12-11T13:20:23.010Z,41.75
2022-12-11T13:22:54.992Z,39.10
2022-12-11T13:25:28.350Z,43.10
2022-12-11T13:28:07.150Z,37.35
2022-12-11T13:30:36.278Z,40.78
2022-12-11T13:33:07.068Z,33.88
2022-12-11T13:35:36.397Z,40.00
2022-12-11T13:38:16.514Z,35.70
2022-12-11T13:40:47.998Z,37.28
2022-12-11T13:43:21.379Z,37.50
2022-12-11T13:45:52.345Z,39.00
2022-12-11T13:48:25.646Z,36.55
2022-12-11T13:50:54.850Z,43.65
2022-12-11T13:53:23.284Z,44.08
2022-12-11T13:55:59.929Z,43.72
2022-12-11T13:58:29.350Z,39.22
2022-12-11T14:01:07.569Z,40.80
2022-12-11T14:03:36.215Z,40.28
2022-12-11T14:06:04.801Z,51.30
2022-12-11T14:08:36.141Z,40.80
2022-12-11T14:11:06.353Z,39.20
2022-12-11T14:13:37.200Z,36.80
2022-12-11T14:16:07.274Z,41.13
2022-12-11T14:18:37.189Z,34.47
2022-12-11T14:21:07.202Z,39.22
2022-12-11T14:23:36.011Z,31.98
2022-12-11T14:26:17.679Z,37.85
2022-12-11T14:28:45.761Z,38.45
2022-12-11T14:31:17.010Z,40.50
2022-12-11T14:33:49.700Z,38.38
2022-12-11T14:36:18.544Z,37.75
2022-12-11T14:38:49.269Z,38.78
2022-12-11T14:41:24.635Z,45.42
2022-12-11T14:43:55.733Z,48.83
2022-12-11T14:46:27.181Z,43.25
2022-12-11T14:49:01.363Z,51.42
2022-12-11T14:51:32.401Z,44.85
2022-12-11T14:54:00.712Z,47.80
2022-12-11T14:56:31.354Z,53.20
2022-12-11T14:59:03.763Z,54.85
2022-12-11T15:01:33.569Z,59.28
2022-12-11T15:04:07.791Z,52.35
2022-12-11T15:06:43.638Z,51.40
2022-12-11T15:09:18.939Z,46.72
2022-12-11T15:11:50.083Z,45.25
2022-12-11T15:14:20.958Z,43.38
2022-12-11T15:16:50.413Z,50.33
2022-12-11T15:19:22.941Z,48.33
2022-12-11T15:21:51.551Z,60.67
2022-12-11T15:24:26.067Z,56.42
2022-12-11T15:26:59.400Z,56.17
2022-12-11T15:29:32.855Z,44.67
2022-12-11T15:32:02.909Z,45.80
2022-12-11T15:34:35.023Z,53.17
2022-12-11T15:37:02.990Z,62.08
2022-12-11T15:39:30.876Z,57.65
2022-12-11T15:42:00.079Z,55.72
2022-12-11T15:44:27.877Z,59.22
2022-12-11T15:46:55.660Z,52.30
2022-12-11T15:49:24.606Z,54.03
2022-12-11T15:51:52.866Z,58.15
2022-12-11T15:54:21.221Z,54.65
2022-12-11T15:56:49.173Z,63.85
2022-12-11T15:59:19.251Z,55.53
2022-12-11T16:01:47.148Z,59.45
2022-12-11T16:04:14.971Z,57.55
2022-12-11T16:06:46.401Z,53.80
2022-12-11T16:09:14.150Z,55.22
2022-12-11T16:11:41.888Z,52.55
2022-12-11T16:14:09.716Z,58.88
2022-12-11T16:16:38.887Z,55.30
2022-12-11T16:19:06.721Z,54.08
2022-12-11T16:21:34.571Z,49.53
2022-12-11T16:24:02.325Z,59.30
2022-12-11T16:26:30.125Z,55.42
2022-12-11T16:28:57.877Z,48.50
2022-12-11T16:31:25.672Z,52.60
2022-12-11T16:33:54.907Z,52.83
2022-12-11T16:36:23.038Z,51.92
2022-12-11T16:38:53.950Z,51.75
2022-12-11T16:41:22.888Z,47.00
2022-12-11T16:43:50.845Z,48.40
2022-12-11T16:46:19.671Z,49.70
2022-12-11T16:48:47.541Z,49.88
2022-12-11T16:51:16.870Z,55.60
2022-12-11T16:53:44.636Z,54.58
2022-12-11T16:56:12.440Z,54.00
2022-12-11T16:58:40.620Z,60.70
2022-12-11T17:01:12.807Z,65.78
2022-12-11T17:03:41.944Z,53.03
2022-12-11T17:06:11.235Z,56.90
2022-12-11T17:08:42.720Z,56.38
2022-12-11T17:11:12.087Z,52.22
2022-12-11T17:13:40.366Z,53.65
2022-12-11T17:16:09.958Z,52.60
2022-12-11T17:18:37.963Z,52.00
2022-12-11T17:21:07.819Z,48.58
2022-12-11T17:23:35.903Z,50.22
2022-12-11T17:26:05.935Z,51.50
2022-12-11T17:28:33.838Z,54.13
2022-12-11T17:31:05.296Z,47.28
2022-12-11T17:33:33.235Z,57.90
2022-12-11T17:36:01.100Z,50.60
2022-12-11T17:38:28.923Z,66.10
2022-12-11T17:40:56.888Z,56.05
2022-12-11T17:43:26.089Z,55.35
2022-12-11T17:45:55.241Z,49.22
2022-12-11T17:48:23.431Z,49.70
2022-12-11T17:50:53.071Z,51.45
2022-12-11T17:53:23.186Z,61.75
2022-12-11T17:55:52.154Z,91.43
2022-12-11T17:58:21.815Z,71.00
2022-12-11T18:00:54.774Z,69.90
2022-12-11T18:05:52.823Z,143.80
2022-12-11T18:08:22.461Z,102.63
2022-12-11T18:10:50.285Z,71.97
2022-12-11T18:13:18.245Z,72.63
2022-12-11T18:15:46.079Z,57.30
2022-12-11T18:18:15.375Z,133.57
2022-12-11T18:20:43.147Z,115.20
2022-12-11T18:23:10.881Z,79.32
2022-12-11T18:25:38.657Z,68.43
2022-12-11T18:28:06.779Z,56.30
2022-12-11T18:30:34.575Z,57.17
2022-12-11T18:33:02.424Z,60.35
2022-12-11T18:35:32.009Z,53.92
2022-12-11T18:37:59.847Z,54.00
2022-12-11T18:40:28.832Z,50.35
2022-12-11T18:42:56.864Z,54.00
2022-12-11T18:45:24.680Z,56.13
2022-12-11T18:47:53.113Z,58.75
2022-12-11T18:50:20.911Z,53.47
2022-12-11T18:52:54.347Z,57.72
2022-12-11T18:55:22.661Z,63.58
2022-12-11T18:57:50.522Z,50.35
2022-12-11T19:00:19.856Z,49.00
2022-12-11T19:02:50.738Z,68.03
2022-12-11T19:05:18.591Z,56.50
2022-12-11T19:07:46.467Z,63.67
2022-12-11T19:10:15.607Z,52.83
2022-12-11T19:12:43.868Z,53.38
2022-12-11T19:15:13.275Z,54.63
2022-12-11T19:17:42.913Z,45.53
2022-12-11T19:20:40.385Z,49.85
2022-12-11T19:22:59.920Z,51.38
2022-12-11T19:25:29.079Z,52.30
2022-12-11T19:27:57.481Z,47.58
2022-12-11T19:30:25.583Z,46.00
2022-12-11T19:32:53.341Z,50.65
2022-12-11T19:35:21.143Z,52.08
2022-12-11T19:37:48.878Z,56.50
2022-12-11T19:40:17.928Z,53.15
2022-12-11T19:42:47.277Z,51.40
2022-12-11T19:45:15.074Z,51.47
2022-12-11T19:47:42.804Z,53.00
2022-12-11T19:50:11.057Z,51.80
2022-12-11T19:52:44.466Z,54.25
2022-12-11T19:55:15.067Z,44.33
2022-12-11T19:57:43.185Z,52.13
2022-12-11T20:00:13.547Z,67.63
2022-12-11T20:02:41.385Z,76.07
2022-12-11T20:05:11.352Z,78.03
2022-12-11T20:07:40.174Z,72.53
2022-12-11T20:10:08.900Z,68.20
2022-12-11T20:12:36.649Z,71.85
2022-12-11T20:15:06.045Z,74.75
2022-12-11T20:17:36.840Z,92.15
2022-12-11T20:20:04.847Z,59.28
2022-12-11T20:22:32.901Z,53.00
2022-12-11T20:25:00.636Z,49.67
2022-12-11T20:27:28.514Z,52.85
2022-12-11T20:29:56.388Z,63.00
2022-12-11T20:32:24.195Z,90.35
2022-12-11T20:34:56.421Z,135.68
2022-12-11T20:37:24.358Z,123.78
2022-12-11T20:39:52.130Z,78.80
2022-12-11T20:42:19.887Z,77.68
2022-12-11T20:44:49.451Z,67.00
2022-12-11T20:47:19.671Z,119.50
2022-12-11T20:49:47.513Z,78.70
2022-12-11T20:52:17.245Z,63.55
2022-12-11T20:54:45.417Z,55.60
2022-12-11T20:57:15.116Z,57.22
2022-12-11T20:59:43.412Z,52.63
2022-12-11T21:02:12.458Z,52.65
2022-12-11T21:04:41.449Z,57.50
2022-12-11T21:07:10.213Z,45.08
2022-12-11T21:09:40.389Z,51.55
2022-12-11T21:12:09.283Z,48.20
2022-12-11T21:14:37.346Z,49.70
2022-12-11T21:17:05.077Z,43.50
2022-12-11T21:19:33.041Z,44.15
2022-12-11T21:22:00.761Z,46.33
2022-12-11T21:24:30.087Z,43.53
2022-12-11T21:26:59.789Z,44.15
2022-12-11T21:29:29.338Z,44.40
2022-12-11T21:31:57.784Z,48.10
2022-12-11T21:34:26.034Z,46.10
2022-12-11T21:36:57.178Z,44.78
2022-12-11T21:39:26.018Z,48.05
2022-12-11T21:41:53.787Z,44.13
2022-12-11T21:47:10.930Z,45.90
2022-12-11T21:49:38.841Z,49.72
2022-12-11T21:52:08.395Z,69.32
2022-12-11T21:54:36.499Z,68.53
2022-12-11T21:57:04.823Z,68.38
2022-12-11T21:59:35.526Z,51.03
2022-12-11T22:02:03.291Z,54.22
2022-12-11T22:04:31.278Z,44.42
2022-12-11T22:06:58.993Z,47.60
2022-12-11T22:09:27.238Z,45.17
2022-12-11T22:11:58.438Z,44.22
2022-12-11T22:14:26.674Z,42.70
2022-12-11T22:16:55.890Z,43.78
2022-12-11T22:19:26.639Z,47.33
2022-12-11T22:21:58.609Z,42.53
2022-12-11T22:24:26.301Z,45.45
2022-12-11T22:26:54.401Z,46.20
2022-12-11T22:29:22.248Z,42.08
2022-12-11T22:31:49.956Z,44.10
2022-12-11T22:34:19.010Z,47.75
2022-12-11T22:36:46.665Z,41.05
2022-12-11T22:39:14.459Z,46.45
2022-12-11T22:41:43.199Z,43.33
2022-12-11T22:44:15.520Z,41.60
2022-12-11T22:46:49.501Z,45.63
2022-12-11T22:49:20.326Z,44.50
2022-12-11T22:51:48.867Z,39.53
2022-12-11T22:54:16.839Z,44.25
2022-12-11T22:56:44.671Z,47.05
2022-12-11T22:59:12.588Z,49.20
2022-12-11T23:01:40.466Z,43.28
2022-12-11T23:04:08.300Z,41.78
2022-12-11T23:06:37.400Z,44.42
2022-12-11T23:09:05.493Z,43.33
2022-12-11T23:11:36.694Z,44.97
2022-12-11T23:14:05.186Z,44.65
2022-12-11T23:16:33.776Z,46.83
2022-12-11T23:19:01.963Z,44.95
2022-12-11T23:21:30.073Z,40.40
2022-12-11T23:23:59.965Z,40.83
2022-12-11T23:26:28.908Z,38.25
2022-12-11T23:28:58.522Z,43.22
2022-12-11T23:31:27.603Z,34.75
2022-12-11T23:33:55.435Z,38.65
2022-12-11T23:36:23.573Z,38.90
2022-12-11T23:38:54.814Z,40.22
2022-12-11T23:41:24.715Z,38.33
2022-12-11T23:43:52.724Z,37.38
2022-12-11T23:46:23.446Z,37.42
2022-12-11T23:48:52.477Z,34.80
2022-12-11T23:51:21.775Z,34.17
2022-12-11T23:53:49.995Z,31.60
2022-12-11T23:56:21.097Z,31.45
2022-12-11T23:58:50.607Z,25.42
